Terminal Aerodrome Forecast
Issued by NWS

Home | Current Version | Previous Version | Graphics & Text | Print | Product List | Glossary On
Versions: 1 2 3 4 5 6 7 8 9 10 11 12
539
FTUS43 KIWX 201740
TAFSBN
TAF
KSBN 201740Z 2018/2118 24014G22KT 6SM SHRA BR BKN035 OVC050
      TEMPO 2018/2019 3SM TSRA BKN030CB
     FM202000 27015G25KT P6SM VCTS BKN035CB
     FM210000 29013KT P6SM OVC020=

USA.gov is the U.S. government's official web portal to all federal, state and local government web resources and services.